createdAt,value
2019-01-26T00:01:01.090Z,123.77
2019-01-26T00:03:30.642Z,109.87
2019-01-26T00:06:03.080Z,117.10
2019-01-26T00:08:33.327Z,118.10
2019-01-26T00:11:02.657Z,119.50
2019-01-26T00:13:32.252Z,108.77
2019-01-26T00:16:02.195Z,124.27
2019-01-26T00:18:31.623Z,104.87
2019-01-26T00:21:00.945Z,119.13
2019-01-26T00:24:16.150Z,107.17
2019-01-26T00:27:03.445Z,103.87
2019-01-26T00:29:34.047Z,106.50
2019-01-26T00:32:04.685Z,101.77
2019-01-26T00:34:34.272Z,102.57
2019-01-26T00:37:03.734Z,117.73
2019-01-26T00:39:33.683Z,109.93
2019-01-26T00:42:03.179Z,111.20
2019-01-26T00:44:32.716Z,126.53
2019-01-26T00:47:02.002Z,112.07
2019-01-26T00:49:31.338Z,114.57
2019-01-26T00:52:00.786Z,109.83
2019-01-26T00:54:30.800Z,112.53
2019-01-26T00:57:01.126Z,115.03
2019-01-26T00:59:32.629Z,116.37
2019-01-26T01:02:02.029Z,124.67
2019-01-26T01:04:31.745Z,121.10
2019-01-26T01:07:01.198Z,135.33
2019-01-26T01:09:30.636Z,129.07
2019-01-26T01:11:59.920Z,155.43
2019-01-26T01:14:30.850Z,147.13
2019-01-26T01:17:00.865Z,154.13
2019-01-26T01:19:30.806Z,155.23
2019-01-26T01:22:00.400Z,178.90
2019-01-26T01:28:14.899Z,187.83
2019-01-26T01:30:44.318Z,186.73
2019-01-26T01:33:14.263Z,209.47
2019-01-26T01:35:43.225Z,218.30
2019-01-26T01:38:12.613Z,233.47
2019-01-26T01:40:41.908Z,222.23
2019-01-26T01:43:11.643Z,184.67
2019-01-26T01:45:40.639Z,250.53
2019-01-26T01:48:10.073Z,304.90
2019-01-26T01:50:39.703Z,220.97
2019-01-26T01:53:08.711Z,201.03
2019-01-26T01:55:38.135Z,224.00
2019-01-26T01:58:07.205Z,242.80
2019-01-26T02:00:36.326Z,230.13
2019-01-26T02:03:05.168Z,213.47
2019-01-26T02:06:04.847Z,222.20
2019-01-26T02:08:52.381Z,210.93
2019-01-26T02:11:40.051Z,261.90
2019-01-26T02:14:27.449Z,266.27
2019-01-26T02:17:14.101Z,289.67
2019-01-26T02:20:00.751Z,310.87
2019-01-26T02:22:47.954Z,284.13
2019-01-26T02:25:34.526Z,353.43
2019-01-26T02:28:21.121Z,351.83
2019-01-26T02:30:49.858Z,313.40
2019-01-26T02:33:18.136Z,358.87
2019-01-26T02:35:46.098Z,442.63
2019-01-26T02:38:14.137Z,420.53
2019-01-26T02:40:42.843Z,400.47
2019-01-26T02:43:12.163Z,408.53
2019-01-26T02:45:40.414Z,482.10
2019-01-26T02:48:08.663Z,462.53
2019-01-26T02:50:37.778Z,396.87
2019-01-26T02:53:06.198Z,438.27
2019-01-26T02:55:34.508Z,415.97
2019-01-26T02:58:02.690Z,441.90
2019-01-26T03:00:31.298Z,467.83
2019-01-26T03:02:59.904Z,388.33
2019-01-26T03:05:28.946Z,476.03
2019-01-26T03:07:57.269Z,517.87
2019-01-26T03:13:37.954Z,579.70
2019-01-26T03:16:24.511Z,574.43
2019-01-26T03:19:11.000Z,567.30
2019-01-26T03:21:57.772Z,487.33
2019-01-26T03:24:44.609Z,475.60
2019-01-26T03:27:31.210Z,492.77
2019-01-26T03:30:00.223Z,519.30
2019-01-26T03:36:27.076Z,543.23
2019-01-26T03:39:13.479Z,577.67
2019-01-26T03:42:00.729Z,595.27
2019-01-26T03:44:48.948Z,556.03
2019-01-26T03:47:36.199Z,555.17
2019-01-26T03:50:23.532Z,507.10
2019-01-26T03:53:13.764Z,519.27
2019-01-26T03:56:00.831Z,517.37
2019-01-26T03:58:51.381Z,497.13
2019-01-26T04:01:20.975Z,443.70
2019-01-26T04:03:52.820Z,482.03
2019-01-26T04:06:22.195Z,454.90
2019-01-26T04:08:53.206Z,471.63
2019-01-26T04:11:22.202Z,515.33
2019-01-26T04:13:50.774Z,474.87
2019-01-26T04:16:20.357Z,499.40
2019-01-26T04:22:35.152Z,479.27
2019-01-26T04:25:22.178Z,491.37
2019-01-26T04:28:08.998Z,473.67
2019-01-26T04:30:38.847Z,508.23
2019-01-26T04:33:07.561Z,487.53
2019-01-26T04:35:39.023Z,473.13
2019-01-26T04:38:07.809Z,516.57
2019-01-26T04:40:36.684Z,489.47
2019-01-26T04:43:07.750Z,413.07
2019-01-26T04:45:39.840Z,436.33
2019-01-26T04:48:08.549Z,481.40
2019-01-26T04:50:38.924Z,438.93
2019-01-26T04:53:07.938Z,438.13
2019-01-26T04:55:37.534Z,455.80
2019-01-26T04:58:06.325Z,446.30
2019-01-26T05:00:35.500Z,434.63
2019-01-26T05:03:03.887Z,424.93
2019-01-26T05:05:32.953Z,458.00
2019-01-26T05:08:05.142Z,431.93
2019-01-26T05:10:33.505Z,484.50
2019-01-26T05:13:06.878Z,449.20
2019-01-26T05:15:35.540Z,436.50
2019-01-26T05:18:05.416Z,436.87
2019-01-26T05:20:35.634Z,457.93
2019-01-26T05:23:05.536Z,407.87
2019-01-26T05:25:36.988Z,417.87
2019-01-26T05:28:11.725Z,441.93
2019-01-26T05:30:43.681Z,443.70
2019-01-26T05:33:13.272Z,435.00
2019-01-26T05:35:42.832Z,431.77
2019-01-26T05:38:14.563Z,429.13
2019-01-26T05:40:43.497Z,418.57
2019-01-26T05:43:16.681Z,450.90
2019-01-26T05:45:48.384Z,378.73
2019-01-26T05:48:18.304Z,430.23
2019-01-26T05:50:48.748Z,445.97
2019-01-26T05:53:20.490Z,388.73
2019-01-26T05:55:50.676Z,420.63
2019-01-26T05:58:20.150Z,412.70
2019-01-26T06:00:49.005Z,426.77
2019-01-26T06:03:17.790Z,410.20
2019-01-26T06:05:47.425Z,460.50
2019-01-26T06:08:23.517Z,402.20
2019-01-26T06:10:52.842Z,410.73
2019-01-26T06:13:22.052Z,412.47
2019-01-26T06:15:55.139Z,417.07
2019-01-26T06:18:23.593Z,422.33
2019-01-26T06:27:09.547Z,440.13
2019-01-26T06:29:56.333Z,483.67
2019-01-26T06:32:26.705Z,435.40
2019-01-26T06:34:54.918Z,441.57
2019-01-26T06:37:23.078Z,472.20
2019-01-26T06:39:51.029Z,491.63
2019-01-26T06:42:19.346Z,451.87
2019-01-26T06:44:47.757Z,431.63
2019-01-26T06:47:16.119Z,442.13
2019-01-26T06:49:44.656Z,447.00
2019-01-26T06:52:13.562Z,438.47
2019-01-26T06:54:41.934Z,459.20
2019-01-26T06:57:10.165Z,390.63
2019-01-26T06:59:38.966Z,371.83
2019-01-26T07:02:07.347Z,385.90
2019-01-26T07:04:44.810Z,368.17
2019-01-26T07:07:16.734Z,406.87
2019-01-26T07:09:45.172Z,424.40
2019-01-26T07:12:14.734Z,445.40
2019-01-26T07:15:22.852Z,405.53
2019-01-26T07:18:09.884Z,399.93
2019-01-26T07:20:57.501Z,441.13
2019-01-26T07:23:44.221Z,410.53
2019-01-26T07:26:31.275Z,383.03
2019-01-26T07:29:18.174Z,354.63
2019-01-26T07:31:46.572Z,385.70
2019-01-26T07:34:18.219Z,408.67
2019-01-26T07:36:48.069Z,381.60
2019-01-26T07:39:16.448Z,341.83
2019-01-26T07:41:45.578Z,377.00
2019-01-26T07:44:14.084Z,366.43
2019-01-26T07:46:42.433Z,323.63
2019-01-26T07:49:10.924Z,309.40
2019-01-26T07:51:41.559Z,302.73
2019-01-26T07:54:10.568Z,316.97
2019-01-26T07:56:38.889Z,298.37
2019-01-26T07:59:09.043Z,283.13
2019-01-26T08:01:41.823Z,324.10
2019-01-26T08:04:10.723Z,298.57
2019-01-26T08:06:39.342Z,328.87
2019-01-26T08:09:12.112Z,313.47
2019-01-26T08:11:43.658Z,370.53
2019-01-26T08:14:12.275Z,297.70
2019-01-26T08:16:43.813Z,317.27
2019-01-26T08:19:18.504Z,288.97
2019-01-26T08:21:48.737Z,340.20
2019-01-26T08:24:17.433Z,292.23
2019-01-26T08:26:46.667Z,349.20
2019-01-26T08:29:16.634Z,314.40
2019-01-26T08:31:45.408Z,349.23
2019-01-26T08:34:16.881Z,298.33
2019-01-26T08:36:48.284Z,292.97
2019-01-26T08:39:20.794Z,312.00
2019-01-26T08:41:50.731Z,293.87
2019-01-26T08:44:18.967Z,308.57
2019-01-26T08:46:47.410Z,279.20
2019-01-26T08:49:15.494Z,254.50
2019-01-26T08:51:45.079Z,276.73
2019-01-26T08:54:13.458Z,287.17
2019-01-26T08:56:42.249Z,263.30
2019-01-26T08:59:18.038Z,302.83
2019-01-26T09:02:05.086Z,257.20
2019-01-26T09:04:35.418Z,247.23
2019-01-26T09:07:05.661Z,229.60
2019-01-26T09:09:35.632Z,281.90
2019-01-26T09:12:04.394Z,286.80
2019-01-26T09:14:32.928Z,274.63
2019-01-26T09:17:01.559Z,243.43
2019-01-26T09:19:30.210Z,250.10
2019-01-26T09:22:01.293Z,254.87
2019-01-26T09:24:30.635Z,230.10
2019-01-26T09:26:59.281Z,215.67
2019-01-26T09:29:27.562Z,237.10
2019-01-26T09:31:58.242Z,263.17
2019-01-26T09:34:29.699Z,233.07
2019-01-26T09:36:58.551Z,226.83
2019-01-26T09:39:27.278Z,234.33
2019-01-26T09:41:55.656Z,210.10
2019-01-26T09:44:25.519Z,233.27
2019-01-26T09:46:55.175Z,208.60
2019-01-26T09:49:23.849Z,212.47
2019-01-26T09:52:00.229Z,192.13
2019-01-26T09:54:33.483Z,227.30
2019-01-26T09:57:01.730Z,272.47
2019-01-26T09:59:33.475Z,206.37
2019-01-26T10:02:02.298Z,208.27
2019-01-26T10:04:31.710Z,228.27
2019-01-26T10:07:00.024Z,205.67
2019-01-26T10:10:02.634Z,198.17
2019-01-26T10:12:50.098Z,203.17
2019-01-26T10:16:51.796Z,219.07
2019-01-26T10:19:38.844Z,181.90
2019-01-26T10:22:25.659Z,220.00
2019-01-26T10:25:12.563Z,196.33
2019-01-26T10:27:59.638Z,171.60
2019-01-26T10:30:42.988Z,181.80
2019-01-26T10:33:11.965Z,183.63
2019-01-26T10:36:09.456Z,174.33
2019-01-26T10:38:42.306Z,160.43
2019-01-26T10:41:31.217Z,138.87
2019-01-26T10:43:59.685Z,147.23
2019-01-26T10:46:27.664Z,124.73
2019-01-26T10:49:00.787Z,140.13
2019-01-26T10:51:28.627Z,112.20
2019-01-26T10:53:57.139Z,110.87
2019-01-26T10:56:25.334Z,105.80
2019-01-26T10:58:53.705Z,110.30
2019-01-26T11:01:23.617Z,109.67
2019-01-26T11:03:52.063Z,122.33
2019-01-26T11:06:20.631Z,133.20
2019-01-26T11:08:49.094Z,113.83
2019-01-26T11:11:20.573Z,147.83
2019-01-26T11:13:49.341Z,138.30
2019-01-26T11:16:18.656Z,123.50
2019-01-26T11:18:47.490Z,125.90
2019-01-26T11:21:18.528Z,120.13
2019-01-26T11:23:48.253Z,128.13
2019-01-26T11:26:16.518Z,127.33
2019-01-26T11:28:46.443Z,137.10
2019-01-26T11:31:19.501Z,139.70
2019-01-26T11:33:48.192Z,158.57
2019-01-26T11:36:16.578Z,159.60
2019-01-26T11:38:44.621Z,163.43
2019-01-26T11:41:12.664Z,186.33
2019-01-26T11:43:42.073Z,195.60
2019-01-26T11:46:23.796Z,199.13
2019-01-26T11:48:53.595Z,195.97
2019-01-26T11:54:58.893Z,221.13
2019-01-26T11:57:45.480Z,271.80
2019-01-26T12:00:45.932Z,246.73
2019-01-26T12:03:51.173Z,258.73
2019-01-26T12:06:35.267Z,277.83
2019-01-26T12:09:08.599Z,249.43
2019-01-26T12:11:36.879Z,273.43
2019-01-26T12:14:05.565Z,316.80
2019-01-26T12:16:33.689Z,330.90
2019-01-26T12:19:01.822Z,285.33
2019-01-26T12:21:29.855Z,250.90
2019-01-26T12:24:01.485Z,294.40
2019-01-26T12:26:29.721Z,297.70
2019-01-26T12:28:57.682Z,277.90
2019-01-26T12:31:26.625Z,324.90
2019-01-26T12:33:57.642Z,242.30
2019-01-26T12:36:28.808Z,207.20
2019-01-26T12:38:57.519Z,228.43
2019-01-26T12:41:25.498Z,231.43
2019-01-26T12:43:53.528Z,167.63
2019-01-26T12:46:21.733Z,162.37
2019-01-26T12:48:50.131Z,166.53
2019-01-26T12:51:18.770Z,146.73
2019-01-26T12:53:46.917Z,144.63
2019-01-26T12:56:15.881Z,135.97
2019-01-26T12:58:44.049Z,155.90
2019-01-26T13:01:12.260Z,155.27
2019-01-26T13:03:41.127Z,123.40
2019-01-26T13:06:10.055Z,139.33
2019-01-26T13:08:38.542Z,110.60
2019-01-26T13:11:20.385Z,115.90
2019-01-26T13:13:48.766Z,103.43
2019-01-26T13:16:17.227Z,105.57
2019-01-26T13:18:45.419Z,130.13
2019-01-26T13:21:14.226Z,123.13
2019-01-26T13:23:42.538Z,103.13
2019-01-26T13:26:10.798Z,113.53
2019-01-26T13:28:38.941Z,104.00
2019-01-26T13:34:35.016Z,108.33
2019-01-26T13:37:21.384Z,98.23
2019-01-26T13:40:11.446Z,86.80
2019-01-26T13:42:59.183Z,97.30
2019-01-26T13:45:45.362Z,83.73
2019-01-26T13:48:32.222Z,84.30
2019-01-26T13:51:18.658Z,84.30
2019-01-26T13:54:05.151Z,96.93
2019-01-26T13:56:52.105Z,96.53
2019-01-26T13:59:38.812Z,81.07
2019-01-26T14:02:10.468Z,105.23
2019-01-26T14:08:18.570Z,97.33
2019-01-26T14:11:05.327Z,93.30
2019-01-26T14:17:04.601Z,110.43
2019-01-26T14:19:52.154Z,101.07
2019-01-26T14:22:39.479Z,118.10
2019-01-26T14:25:27.088Z,119.10
2019-01-26T14:28:15.005Z,113.47
2019-01-26T14:30:48.384Z,113.20
2019-01-26T14:33:18.347Z,120.83
2019-01-26T14:35:48.050Z,125.47
2019-01-26T14:38:18.272Z,119.73
2019-01-26T14:40:48.667Z,114.43
2019-01-26T14:43:18.795Z,114.83
2019-01-26T14:45:48.215Z,120.33
2019-01-26T14:48:18.315Z,110.23
2019-01-26T14:50:48.138Z,107.30
2019-01-26T14:53:18.094Z,118.10
2019-01-26T14:55:48.998Z,101.30
2019-01-26T14:58:18.379Z,102.43
2019-01-26T15:00:47.912Z,97.27
2019-01-26T15:03:21.925Z,100.23
2019-01-26T15:05:51.842Z,91.50
2019-01-26T15:08:21.919Z,93.10
2019-01-26T15:10:54.267Z,84.97
2019-01-26T15:13:25.253Z,94.43
2019-01-26T15:15:54.547Z,79.83
2019-01-26T15:18:25.291Z,81.10
2019-01-26T15:20:54.561Z,79.30
2019-01-26T15:23:24.960Z,70.70
2019-01-26T15:25:54.769Z,92.67
2019-01-26T15:28:24.604Z,73.13
2019-01-26T15:30:54.183Z,64.90
2019-01-26T15:33:23.674Z,67.83
2019-01-26T15:35:53.011Z,81.47
2019-01-26T15:38:22.427Z,67.80
2019-01-26T15:41:09.752Z,57.93
2019-01-26T15:43:57.619Z,57.63
2019-01-26T15:46:45.088Z,57.60
2019-01-26T15:49:34.673Z,50.53
2019-01-26T15:52:22.471Z,48.50
2019-01-26T15:55:18.172Z,44.73
2019-01-26T15:58:06.501Z,44.00
2019-01-26T16:00:38.537Z,38.63
2019-01-26T16:03:10.580Z,37.73
2019-01-26T16:05:41.517Z,33.13
2019-01-26T16:08:11.191Z,31.77
2019-01-26T16:10:45.549Z,31.77
2019-01-26T16:13:15.234Z,31.90
2019-01-26T16:15:44.587Z,26.83
2019-01-26T16:18:17.991Z,36.57
2019-01-26T16:20:48.874Z,29.13
2019-01-26T16:23:18.565Z,30.23
2019-01-26T16:25:48.794Z,32.30
2019-01-26T16:28:19.343Z,34.80
2019-01-26T16:30:50.275Z,35.23
2019-01-26T16:33:20.826Z,34.40
2019-01-26T16:35:56.342Z,36.57
2019-01-26T16:38:28.426Z,38.87
2019-01-26T16:41:01.033Z,35.07
2019-01-26T16:43:33.035Z,32.33
2019-01-26T16:46:03.495Z,42.17
2019-01-26T16:48:34.607Z,35.83
2019-01-26T16:51:07.091Z,33.50
2019-01-26T16:53:36.845Z,30.70
2019-01-26T16:56:08.759Z,35.30
2019-01-26T16:58:40.974Z,38.33
2019-01-26T17:01:14.126Z,32.47
2019-01-26T17:03:43.981Z,36.53
2019-01-26T17:06:14.801Z,40.83
2019-01-26T17:08:54.451Z,36.63
2019-01-26T17:11:24.797Z,38.77
2019-01-26T17:14:01.931Z,39.10
2019-01-26T17:16:33.995Z,36.87
2019-01-26T17:19:09.382Z,35.90
2019-01-26T17:21:42.842Z,35.10
2019-01-26T17:24:12.458Z,36.80
2019-01-26T17:26:52.738Z,33.87
2019-01-26T17:29:21.416Z,35.73
2019-01-26T17:31:51.136Z,33.70
2019-01-26T17:34:20.716Z,36.37
2019-01-26T17:40:23.950Z,34.90
2019-01-26T17:43:11.547Z,35.93
2019-01-26T17:46:04.219Z,40.63
2019-01-26T17:48:55.534Z,40.27
2019-01-26T17:51:43.715Z,40.33
2019-01-26T17:54:33.922Z,41.10
2019-01-26T17:57:25.118Z,37.40
2019-01-26T17:59:56.236Z,39.53
2019-01-26T18:02:30.238Z,39.80
2019-01-26T18:05:03.635Z,39.67
2019-01-26T18:07:36.650Z,45.30
2019-01-26T18:10:07.739Z,47.60
2019-01-26T18:15:33.220Z,44.37
2019-01-26T18:18:04.852Z,44.63
2019-01-26T18:20:35.258Z,51.60
2019-01-26T18:23:09.867Z,48.53
2019-01-26T18:25:43.630Z,49.63
2019-01-26T18:28:19.743Z,47.97
2019-01-26T18:30:51.926Z,54.67
2019-01-26T18:33:22.948Z,46.00
2019-01-26T18:35:55.375Z,47.03
2019-01-26T18:38:25.220Z,45.80
2019-01-26T18:40:59.861Z,44.77
2019-01-26T18:43:30.708Z,51.70
2019-01-26T18:46:00.009Z,40.97
2019-01-26T18:48:33.095Z,44.50
2019-01-26T18:51:27.018Z,42.17
2019-01-26T18:53:58.269Z,41.73
2019-01-26T18:56:29.229Z,44.33
2019-01-26T18:59:00.516Z,42.87
2019-01-26T19:01:35.276Z,39.70
2019-01-26T19:04:15.247Z,41.50
2019-01-26T19:06:55.548Z,41.53
2019-01-26T19:09:25.585Z,48.53
2019-01-26T19:11:56.397Z,39.67
2019-01-26T19:14:31.611Z,41.93
2019-01-26T19:17:01.678Z,35.50
2019-01-26T19:19:51.571Z,35.03
2019-01-26T19:22:39.677Z,31.77
2019-01-26T19:25:27.986Z,29.80
2019-01-26T19:28:15.230Z,24.40
2019-01-26T19:30:44.573Z,18.37
2019-01-26T19:33:15.742Z,21.87
2019-01-26T19:35:49.686Z,21.93
2019-01-26T19:38:19.402Z,21.87
2019-01-26T19:40:52.499Z,22.13
2019-01-26T19:43:32.849Z,19.93
2019-01-26T19:46:10.422Z,20.63
2019-01-26T19:48:47.118Z,19.90
2019-01-26T19:51:17.652Z,20.90
2019-01-26T19:54:22.145Z,20.97
2019-01-26T19:57:09.604Z,22.93
2019-01-26T19:59:58.043Z,19.63
2019-01-26T20:02:27.926Z,21.07
2019-01-26T20:04:57.694Z,17.90
2019-01-26T20:07:34.885Z,18.37
2019-01-26T20:10:06.618Z,17.90
2019-01-26T20:12:37.544Z,25.20
2019-01-26T20:15:23.776Z,19.80
2019-01-26T20:18:12.981Z,18.20
2019-01-26T20:21:10.605Z,18.53
2019-01-26T20:30:04.714Z,16.63
2019-01-26T20:32:42.837Z,18.10
2019-01-26T20:35:12.986Z,18.53
2019-01-26T20:37:47.002Z,15.30
2019-01-26T20:40:21.461Z,16.47
2019-01-26T20:42:54.491Z,14.33
2019-01-26T20:45:30.418Z,13.57
2019-01-26T20:48:05.489Z,16.83
2019-01-26T20:50:35.868Z,13.13
2019-01-26T20:53:05.902Z,15.83
2019-01-26T20:55:43.813Z,17.10
2019-01-26T20:58:18.418Z,18.33
2019-01-26T21:00:52.784Z,18.37
2019-01-26T21:03:22.450Z,16.53
2019-01-26T21:05:54.048Z,16.00
2019-01-26T21:08:26.654Z,17.30
2019-01-26T21:11:05.322Z,14.93
2019-01-26T21:13:52.542Z,18.83
2019-01-26T21:16:43.147Z,17.17
2019-01-26T21:19:30.761Z,16.37
2019-01-26T21:22:17.898Z,15.40
2019-01-26T21:25:06.509Z,17.57
2019-01-26T21:27:57.069Z,14.73
2019-01-26T21:30:32.431Z,12.97
2019-01-26T21:33:05.185Z,12.67
2019-01-26T21:35:38.684Z,11.80
2019-01-26T21:38:07.583Z,11.93
2019-01-26T21:40:40.505Z,11.07
2019-01-26T21:43:13.460Z,8.93
2019-01-26T21:45:43.814Z,8.43
2019-01-26T21:49:10.768Z,10.83
2019-01-26T21:52:01.724Z,8.27
2019-01-26T21:54:49.393Z,9.40
2019-01-26T21:57:39.619Z,7.63
2019-01-26T22:00:32.518Z,7.30
2019-01-26T22:03:02.654Z,7.57
2019-01-26T22:05:32.089Z,6.57
2019-01-26T22:08:01.424Z,6.20
2019-01-26T22:10:54.492Z,6.93
2019-01-26T22:13:44.101Z,5.50
2019-01-26T22:16:33.989Z,5.43
2019-01-26T22:22:54.649Z,6.77
2019-01-26T22:25:42.326Z,5.00
2019-01-26T22:28:29.839Z,4.87
2019-01-26T22:30:58.808Z,4.87
2019-01-26T22:33:28.895Z,4.50
2019-01-26T22:35:58.058Z,4.63
2019-01-26T22:38:27.152Z,4.67
2019-01-26T22:40:56.481Z,4.40
2019-01-26T22:43:30.095Z,4.80
2019-01-26T22:45:59.144Z,4.17
2019-01-26T22:48:31.855Z,3.93
2019-01-26T22:52:17.697Z,4.43
2019-01-26T22:55:07.698Z,3.40
2019-01-26T22:57:55.768Z,3.37
2019-01-26T23:01:02.689Z,3.70
2019-01-26T23:03:44.442Z,3.60
2019-01-26T23:06:54.556Z,4.30
2019-01-26T23:09:35.742Z,3.07
2019-01-26T23:12:45.599Z,3.67
2019-01-26T23:16:11.168Z,3.23
2019-01-26T23:19:44.743Z,2.87
2019-01-26T23:22:47.870Z,3.13
2019-01-26T23:25:41.510Z,3.40
2019-01-26T23:28:31.881Z,2.90
2019-01-26T23:31:21.580Z,3.83
2019-01-26T23:33:52.091Z,2.97
2019-01-26T23:36:21.223Z,3.10
2019-01-26T23:38:50.766Z,4.13
2019-01-26T23:41:23.088Z,3.20
2019-01-26T23:43:52.822Z,3.43
2019-01-26T23:46:22.369Z,3.60
2019-01-26T23:48:51.224Z,3.03
2019-01-26T23:51:20.042Z,2.70
2019-01-26T23:53:49.092Z,2.73
2019-01-26T23:56:17.930Z,2.40
2019-01-26T23:58:46.841Z,3.47
